createdAt,value
2019-05-29T00:00:40.169Z,0.00
2019-05-29T00:01:40.080Z,0.00
2019-05-29T00:02:39.993Z,0.00
2019-05-29T00:03:39.923Z,0.00
2019-05-29T00:04:39.838Z,0.00
2019-05-29T00:05:39.761Z,0.00
2019-05-29T00:06:39.674Z,0.00
2019-05-29T00:07:39.613Z,0.00
2019-05-29T00:08:39.530Z,0.00
2019-05-29T00:09:39.443Z,0.00
2019-05-29T00:10:39.359Z,0.00
2019-05-29T00:11:39.283Z,0.00
2019-05-29T00:12:39.204Z,0.00
2019-05-29T00:13:39.121Z,0.00
2019-05-29T00:14:39.042Z,0.00
2019-05-29T00:15:38.963Z,0.00
2019-05-29T00:16:38.882Z,0.00
2019-05-29T00:17:38.802Z,0.00
2019-05-29T00:18:38.728Z,0.00
2019-05-29T00:19:38.637Z,0.00
2019-05-29T00:20:38.562Z,0.00
2019-05-29T00:21:38.485Z,0.00
2019-05-29T00:22:38.402Z,0.00
2019-05-29T00:23:38.319Z,0.00
2019-05-29T00:24:38.240Z,0.00
2019-05-29T00:25:38.161Z,0.00
2019-05-29T00:26:38.082Z,0.00
2019-05-29T00:27:37.999Z,0.00
2019-05-29T00:28:37.921Z,0.00
2019-05-29T00:29:37.843Z,0.00
2019-05-29T00:30:37.764Z,0.00
2019-05-29T00:31:37.683Z,0.00
2019-05-29T00:32:37.865Z,0.00
2019-05-29T00:33:37.526Z,0.00
2019-05-29T00:34:37.447Z,0.00
2019-05-29T00:35:37.365Z,0.00
2019-05-29T00:36:37.293Z,0.00
2019-05-29T00:37:37.202Z,0.00
2019-05-29T00:38:37.120Z,0.00
2019-05-29T00:39:37.041Z,0.00
2019-05-29T00:40:36.962Z,0.00
2019-05-29T00:41:36.883Z,0.00
2019-05-29T00:42:36.807Z,0.00
2019-05-29T00:43:36.722Z,0.00
2019-05-29T00:44:36.640Z,0.00
2019-05-29T00:45:36.559Z,0.00
2019-05-29T00:46:36.481Z,0.00
2019-05-29T00:47:36.400Z,0.00
2019-05-29T00:48:36.323Z,0.00
2019-05-29T00:49:36.244Z,0.00
2019-05-29T00:50:36.161Z,0.00
2019-05-29T00:51:36.082Z,0.00
2019-05-29T00:52:36.006Z,0.00
2019-05-29T00:53:43.569Z,0.00
2019-05-29T00:55:40.219Z,0.00
2019-05-29T00:56:40.125Z,0.00
2019-05-29T00:58:43.943Z,0.00
2019-05-29T00:59:43.850Z,0.00
2019-05-29T01:00:43.771Z,0.00
2019-05-29T01:01:43.691Z,0.00
2019-05-29T01:02:43.618Z,0.00
2019-05-29T01:03:43.530Z,0.00
2019-05-29T01:04:43.451Z,0.00
2019-05-29T01:05:43.372Z,0.00
2019-05-29T01:06:43.294Z,0.00
2019-05-29T01:07:43.213Z,0.00
2019-05-29T01:08:43.133Z,0.00
2019-05-29T01:09:43.055Z,0.00
2019-05-29T01:10:42.970Z,0.00
2019-05-29T01:11:42.892Z,0.00
2019-05-29T01:12:42.811Z,0.00
2019-05-29T01:13:42.734Z,0.00
2019-05-29T01:14:50.164Z,0.00
2019-05-29T01:15:42.572Z,0.00
2019-05-29T01:16:42.491Z,0.00
2019-05-29T01:17:42.413Z,0.00
2019-05-29T01:18:42.335Z,0.00
2019-05-29T01:19:42.249Z,0.00
2019-05-29T01:20:42.173Z,0.00
2019-05-29T01:21:42.092Z,0.00
2019-05-29T01:22:42.011Z,0.00
2019-05-29T01:23:41.934Z,0.00
2019-05-29T01:24:41.856Z,0.00
2019-05-29T01:25:41.770Z,0.00
2019-05-29T01:26:41.693Z,0.00
2019-05-29T01:27:41.614Z,0.00
2019-05-29T01:28:41.533Z,0.00
2019-05-29T01:29:41.453Z,0.00
2019-05-29T01:30:41.373Z,0.00
2019-05-29T01:31:41.295Z,0.00
2019-05-29T01:32:41.216Z,0.00
2019-05-29T01:33:41.134Z,0.00
2019-05-29T01:34:41.055Z,0.00
2019-05-29T01:35:40.972Z,0.00
2019-05-29T01:36:40.899Z,0.00
2019-05-29T01:37:40.815Z,0.00
2019-05-29T01:38:40.739Z,0.00
2019-05-29T01:39:40.652Z,0.00
2019-05-29T01:40:40.576Z,0.00
2019-05-29T01:41:40.494Z,0.00
2019-05-29T01:42:40.411Z,0.00
2019-05-29T01:43:40.337Z,0.00
2019-05-29T01:44:40.258Z,0.00
2019-05-29T01:45:40.177Z,0.00
2019-05-29T01:46:40.098Z,0.00
2019-05-29T01:47:40.018Z,0.00
2019-05-29T01:48:39.938Z,0.00
2019-05-29T01:49:39.857Z,0.00
2019-05-29T01:50:39.778Z,0.00
2019-05-29T01:51:39.701Z,0.00
2019-05-29T01:52:39.632Z,0.00
2019-05-29T01:53:39.540Z,0.00
2019-05-29T01:54:39.466Z,0.00
2019-05-29T01:55:39.380Z,0.00
2019-05-29T01:56:39.297Z,0.00
2019-05-29T01:57:39.221Z,0.00
2019-05-29T01:58:39.142Z,0.00
2019-05-29T01:59:39.065Z,0.00
2019-05-29T02:00:38.982Z,0.00
2019-05-29T02:01:38.902Z,0.00
2019-05-29T02:02:38.823Z,0.00
2019-05-29T02:03:38.738Z,0.00
2019-05-29T02:04:38.661Z,0.00
2019-05-29T02:05:38.582Z,0.00
2019-05-29T02:06:38.501Z,0.00
2019-05-29T02:07:38.423Z,0.00
2019-05-29T02:08:38.339Z,0.00
2019-05-29T02:09:38.259Z,0.00
2019-05-29T02:10:38.182Z,0.00
2019-05-29T02:11:38.105Z,0.00
2019-05-29T02:12:38.017Z,0.00
2019-05-29T02:13:37.943Z,0.00
2019-05-29T02:14:37.865Z,0.00
2019-05-29T02:15:37.785Z,0.00
2019-05-29T02:16:37.702Z,0.00
2019-05-29T02:17:37.621Z,0.00
2019-05-29T02:18:37.544Z,0.00
2019-05-29T02:19:37.460Z,0.00
2019-05-29T02:20:37.384Z,0.00
2019-05-29T02:21:37.293Z,0.00
2019-05-29T02:22:37.226Z,0.00
2019-05-29T02:23:37.137Z,0.00
2019-05-29T02:24:37.062Z,0.00
2019-05-29T02:25:36.983Z,0.00
2019-05-29T02:26:36.900Z,0.00
2019-05-29T02:27:36.820Z,0.00
2019-05-29T02:28:36.743Z,0.00
2019-05-29T02:29:36.655Z,0.00
2019-05-29T02:30:36.585Z,0.00
2019-05-29T02:31:36.499Z,0.00
2019-05-29T02:32:36.426Z,0.00
2019-05-29T02:33:36.342Z,0.00
2019-05-29T02:34:36.262Z,0.00
2019-05-29T02:35:36.184Z,0.00
2019-05-29T02:36:36.106Z,0.00
2019-05-29T02:37:36.022Z,0.00
2019-05-29T02:38:35.944Z,0.00
2019-05-29T02:39:35.869Z,0.00
2019-05-29T02:40:35.784Z,0.00
2019-05-29T02:41:35.705Z,0.00
2019-05-29T02:42:35.623Z,0.00
2019-05-29T02:43:35.544Z,0.00
2019-05-29T02:44:35.477Z,0.00
2019-05-29T02:45:52.703Z,0.00
2019-05-29T02:46:35.304Z,0.00
2019-05-29T02:47:35.222Z,0.00
2019-05-29T02:48:35.150Z,0.00
2019-05-29T02:49:35.064Z,0.00
2019-05-29T02:50:34.987Z,0.00
2019-05-29T02:51:34.907Z,4.00
2019-05-29T02:52:34.829Z,4.00
2019-05-29T02:53:34.746Z,4.00
2019-05-29T02:54:34.660Z,0.00
2019-05-29T02:55:34.587Z,4.00
2019-05-29T02:56:34.507Z,4.00
2019-05-29T02:57:34.425Z,4.00
2019-05-29T02:58:34.352Z,4.00
2019-05-29T02:59:34.267Z,4.00
2019-05-29T03:00:34.189Z,8.00
2019-05-29T03:01:34.118Z,4.00
2019-05-29T03:02:34.036Z,8.00
2019-05-29T03:03:39.375Z,8.00
2019-05-29T03:04:33.871Z,8.00
2019-05-29T03:05:33.790Z,12.00
2019-05-29T03:06:33.705Z,12.00
2019-05-29T03:07:33.622Z,12.00
2019-05-29T03:08:34.390Z,16.00
2019-05-29T03:09:33.482Z,16.00
2019-05-29T03:10:33.386Z,20.00
2019-05-29T03:11:33.514Z,20.00
2019-05-29T03:12:33.672Z,20.00
2019-05-29T03:13:33.664Z,24.00
2019-05-29T03:14:34.730Z,24.00
2019-05-29T03:15:33.758Z,24.00
2019-05-29T03:16:34.778Z,28.00
2019-05-29T03:17:33.804Z,32.00
2019-05-29T03:18:34.737Z,36.00
2019-05-29T03:19:34.519Z,40.00
2019-05-29T03:20:34.089Z,44.00
2019-05-29T03:21:34.272Z,48.00
2019-05-29T03:22:33.740Z,52.00
2019-05-29T03:23:35.162Z,60.00
2019-05-29T03:24:33.087Z,64.00
2019-05-29T03:25:32.613Z,68.00
2019-05-29T03:26:33.460Z,72.00
2019-05-29T03:27:32.084Z,76.00
2019-05-29T03:28:33.000Z,80.00
2019-05-29T03:29:32.047Z,84.00
2019-05-29T03:30:38.753Z,84.00
2019-05-29T03:31:38.074Z,88.00
2019-05-29T03:32:38.892Z,96.00
2019-05-29T03:33:39.306Z,96.00
2019-05-29T03:34:37.802Z,100.00
2019-05-29T03:35:39.695Z,108.00
2019-05-29T03:36:38.391Z,112.00
2019-05-29T03:37:32.453Z,120.00
2019-05-29T03:38:32.669Z,128.00
2019-05-29T03:39:32.316Z,136.00
2019-05-29T03:40:32.818Z,144.00
2019-05-29T03:41:32.547Z,156.00
2019-05-29T03:42:32.389Z,164.00
2019-05-29T03:43:31.557Z,176.00
2019-05-29T03:44:30.876Z,188.00
2019-05-29T03:45:31.313Z,196.00
2019-05-29T03:46:38.738Z,204.00
2019-05-29T03:47:31.042Z,212.00
2019-05-29T03:48:32.199Z,224.00
2019-05-29T03:49:31.163Z,232.00
2019-05-29T03:50:31.196Z,240.00
2019-05-29T03:51:32.469Z,244.00
2019-05-29T03:52:30.365Z,248.00
2019-05-29T03:53:31.680Z,256.00
2019-05-29T03:54:30.921Z,264.00
2019-05-29T03:55:31.390Z,268.00
2019-05-29T03:56:30.650Z,280.00
2019-05-29T03:57:31.355Z,292.00
2019-05-29T03:58:30.977Z,300.00
2019-05-29T03:59:30.677Z,316.00
2019-05-29T04:00:31.885Z,332.00
2019-05-29T04:01:31.263Z,344.00
2019-05-29T04:02:31.040Z,364.00
2019-05-29T04:03:30.569Z,372.00
2019-05-29T04:04:29.142Z,388.00
2019-05-29T04:05:29.169Z,400.00
2019-05-29T04:06:29.174Z,412.00
2019-05-29T04:07:29.235Z,428.00
2019-05-29T04:08:29.492Z,440.00
2019-05-29T04:09:29.194Z,456.00
2019-05-29T04:10:29.370Z,472.00
2019-05-29T04:11:29.300Z,484.00
2019-05-29T04:12:29.548Z,504.00
2019-05-29T04:13:29.601Z,520.00
2019-05-29T04:14:29.702Z,540.00
2019-05-29T04:15:29.313Z,560.00
2019-05-29T04:16:29.465Z,580.00
2019-05-29T04:17:29.572Z,600.00
2019-05-29T04:18:29.582Z,616.00
2019-05-29T04:19:29.917Z,636.00
2019-05-29T04:20:29.421Z,656.00
2019-05-29T04:21:27.997Z,676.00
2019-05-29T04:22:28.318Z,692.00
2019-05-29T04:23:27.899Z,712.00
2019-05-29T04:24:27.938Z,732.00
2019-05-29T04:25:31.816Z,752.00
2019-05-29T04:26:27.931Z,772.00
2019-05-29T04:27:27.923Z,784.00
2019-05-29T04:28:27.932Z,800.00
2019-05-29T04:29:28.019Z,820.00
2019-05-29T04:30:28.147Z,836.00
2019-05-29T04:31:28.117Z,852.00
2019-05-29T04:32:28.084Z,864.00
2019-05-29T04:33:28.116Z,876.00
2019-05-29T04:34:26.649Z,888.00
2019-05-29T04:35:28.188Z,904.00
2019-05-29T04:36:28.299Z,916.00
2019-05-29T04:37:26.489Z,928.00
2019-05-29T04:38:26.331Z,944.00
2019-05-29T04:39:26.248Z,960.00
2019-05-29T04:40:26.167Z,980.00
2019-05-29T04:41:26.089Z,1004.00
2019-05-29T04:42:26.011Z,1024.00
2019-05-29T04:43:25.927Z,1048.00
2019-05-29T04:44:25.853Z,1068.00
2019-05-29T04:45:25.762Z,1084.00
2019-05-29T04:46:25.701Z,1100.00
2019-05-29T04:47:25.613Z,1116.00
2019-05-29T04:48:25.524Z,1128.00
2019-05-29T04:49:25.447Z,1140.00
2019-05-29T04:50:25.364Z,1148.00
2019-05-29T04:51:25.286Z,1172.00
2019-05-29T04:52:25.208Z,1192.00
2019-05-29T04:53:25.122Z,1216.00
2019-05-29T04:54:25.043Z,1252.00
2019-05-29T04:55:24.964Z,1288.00
2019-05-29T04:56:24.881Z,1328.00
2019-05-29T04:57:24.795Z,1372.00
2019-05-29T04:58:24.723Z,1408.00
2019-05-29T04:59:24.642Z,1424.00
2019-05-29T05:00:24.560Z,1464.00
2019-05-29T05:01:24.481Z,1504.00
2019-05-29T05:02:24.401Z,1548.00
2019-05-29T05:03:24.319Z,1592.00
2019-05-29T05:04:24.241Z,1640.00
2019-05-29T05:05:24.162Z,1684.00
2019-05-29T05:06:24.077Z,1744.00
2019-05-29T05:07:23.998Z,1796.00
2019-05-29T05:08:23.917Z,1840.00
2019-05-29T05:09:23.837Z,1888.00
2019-05-29T05:10:23.754Z,1936.00
2019-05-29T05:11:23.675Z,1984.00
2019-05-29T05:12:23.596Z,2024.00
2019-05-29T05:13:23.515Z,2060.00
2019-05-29T05:14:23.442Z,2112.00
2019-05-29T05:15:23.355Z,2136.00
2019-05-29T05:16:23.279Z,2156.00
2019-05-29T05:17:26.040Z,2156.00
2019-05-29T05:18:23.115Z,2180.00
2019-05-29T05:19:23.035Z,2204.00
2019-05-29T05:20:22.959Z,2240.00
2019-05-29T05:21:22.872Z,2280.00
2019-05-29T05:22:22.795Z,2320.00
2019-05-29T05:23:22.715Z,2368.00
2019-05-29T05:24:22.636Z,2420.00
2019-05-29T05:25:22.548Z,2460.00
2019-05-29T05:26:22.476Z,2492.00
2019-05-29T05:27:22.398Z,2512.00
2019-05-29T05:28:22.316Z,2532.00
2019-05-29T05:29:22.240Z,2552.00
2019-05-29T05:30:22.155Z,2576.00
2019-05-29T05:31:22.071Z,2608.00
2019-05-29T05:32:21.989Z,2648.00
2019-05-29T05:33:21.915Z,2688.00
2019-05-29T05:34:21.835Z,2736.00
2019-05-29T05:35:21.754Z,2788.00
2019-05-29T05:36:21.676Z,2844.00
2019-05-29T05:37:21.595Z,2896.00
2019-05-29T05:38:21.516Z,2944.00
2019-05-29T05:39:21.432Z,2972.00
2019-05-29T05:40:21.368Z,3016.00
2019-05-29T05:41:21.277Z,3084.00
2019-05-29T05:42:21.191Z,3140.00
2019-05-29T05:43:24.085Z,3204.00
2019-05-29T05:44:21.036Z,3272.00
2019-05-29T05:45:20.962Z,3332.00
2019-05-29T05:46:20.875Z,3400.00
2019-05-29T05:47:20.795Z,3436.00
2019-05-29T05:48:20.716Z,3432.00
2019-05-29T05:49:20.637Z,3440.00
2019-05-29T05:50:20.560Z,3432.00
2019-05-29T05:51:20.476Z,3420.00
2019-05-29T05:52:20.400Z,3396.00
2019-05-29T05:53:20.318Z,3396.00
2019-05-29T05:54:20.238Z,3420.00
2019-05-29T05:55:20.157Z,3424.00
2019-05-29T05:56:20.078Z,3364.00
2019-05-29T05:57:19.998Z,3372.00
2019-05-29T05:58:19.916Z,3392.00
2019-05-29T05:59:19.837Z,3260.00
2019-05-29T06:00:19.757Z,3296.00
2019-05-29T06:01:19.680Z,3380.00
2019-05-29T06:02:19.602Z,3476.00
2019-05-29T06:03:19.521Z,3512.00
2019-05-29T06:04:19.449Z,3592.00
2019-05-29T06:05:19.354Z,3600.00
2019-05-29T06:06:19.284Z,3616.00
2019-05-29T06:07:19.201Z,3612.00
2019-05-29T06:08:19.123Z,3656.00
2019-05-29T06:09:19.038Z,3768.00
2019-05-29T06:10:18.963Z,3852.00
2019-05-29T06:11:18.884Z,3888.00
2019-05-29T06:12:18.803Z,3912.00
2019-05-29T06:13:18.718Z,3888.00
2019-05-29T06:14:18.644Z,3660.00
2019-05-29T06:15:18.558Z,3248.00
2019-05-29T06:16:18.489Z,3512.00
2019-05-29T06:17:21.753Z,3516.00
2019-05-29T06:18:21.641Z,3612.00
2019-05-29T06:19:18.248Z,3596.00
2019-05-29T06:20:18.165Z,3704.00
2019-05-29T06:21:18.088Z,3888.00
2019-05-29T06:22:18.011Z,4224.00
2019-05-29T06:23:17.998Z,4292.00
2019-05-29T06:24:17.843Z,4416.00
2019-05-29T06:25:18.136Z,4072.00
2019-05-29T06:26:17.691Z,4152.00
2019-05-29T06:27:17.603Z,3844.00
2019-05-29T06:28:17.530Z,3956.00
2019-05-29T06:29:17.469Z,3768.00
2019-05-29T06:30:17.370Z,3812.00
2019-05-29T06:31:17.291Z,4056.00
2019-05-29T06:32:17.233Z,4360.00
2019-05-29T06:33:17.129Z,3964.00
2019-05-29T06:34:17.061Z,3444.00
2019-05-29T06:35:16.975Z,3388.00
2019-05-29T06:36:16.895Z,3872.00
2019-05-29T06:37:16.817Z,4308.00
2019-05-29T06:38:16.751Z,4232.00
2019-05-29T06:39:16.699Z,4392.00
2019-05-29T06:40:16.605Z,4444.00
2019-05-29T06:41:16.499Z,4048.00
2019-05-29T06:42:16.422Z,3868.00
2019-05-29T06:43:16.340Z,4104.00
2019-05-29T06:44:16.260Z,4036.00
2019-05-29T06:45:16.221Z,4332.00
2019-05-29T06:46:16.102Z,3820.00
2019-05-29T06:47:16.023Z,3376.00
2019-05-29T06:48:15.943Z,3808.00
2019-05-29T06:49:15.868Z,4316.00
2019-05-29T06:50:15.783Z,4012.00
2019-05-29T06:51:15.703Z,3656.00
2019-05-29T06:52:15.624Z,3768.00
2019-05-29T06:53:15.539Z,3880.00
2019-05-29T06:54:22.637Z,3388.00
2019-05-29T06:56:19.772Z,3988.00
2019-05-29T06:57:19.680Z,3552.00
2019-05-29T06:58:19.606Z,3972.00
2019-05-29T06:59:19.517Z,3372.00
2019-05-29T07:00:34.399Z,3208.00
2019-05-29T07:01:19.359Z,2768.00
2019-05-29T07:02:19.277Z,2720.00
2019-05-29T07:03:19.196Z,2964.00
2019-05-29T07:04:19.121Z,2840.00
2019-05-29T07:05:19.039Z,3116.00
2019-05-29T07:06:18.961Z,3632.00
2019-05-29T07:07:18.880Z,3304.00
2019-05-29T07:08:28.928Z,3012.00
2019-05-29T07:09:18.724Z,2524.00
2019-05-29T07:10:18.642Z,3020.00
2019-05-29T07:11:18.567Z,3408.00
2019-05-29T07:12:18.485Z,3712.00
2019-05-29T07:13:18.403Z,3832.00
2019-05-29T07:14:18.325Z,3340.00
2019-05-29T07:15:18.252Z,3144.00
2019-05-29T07:16:18.171Z,3356.00
2019-05-29T07:17:18.088Z,3596.00
2019-05-29T07:20:03.955Z,3444.00
2019-05-29T07:21:00.966Z,3164.00
2019-05-29T07:23:06.288Z,3196.00
2019-05-29T07:24:06.202Z,3632.00
2019-05-29T07:25:06.120Z,4200.00
2019-05-29T07:26:06.048Z,4984.00
2019-05-29T07:27:05.972Z,4660.00
2019-05-29T07:28:05.887Z,4016.00
2019-05-29T07:29:08.325Z,4656.00
2019-05-29T07:30:05.727Z,5364.00
2019-05-29T07:31:05.645Z,4520.00
2019-05-29T07:32:05.569Z,4512.00
2019-05-29T07:33:05.490Z,4888.00
2019-05-29T07:34:05.436Z,5096.00
2019-05-29T07:35:05.335Z,4588.00
2019-05-29T07:36:05.251Z,4344.00
2019-05-29T07:37:05.170Z,4888.00
2019-05-29T07:38:05.097Z,4964.00
2019-05-29T07:39:05.022Z,4680.00
2019-05-29T07:40:04.940Z,4572.00
2019-05-29T07:41:04.864Z,4360.00
2019-05-29T07:42:04.784Z,3748.00
2019-05-29T07:43:04.714Z,3700.00
2019-05-29T07:44:04.626Z,3068.00
2019-05-29T07:45:04.547Z,3272.00
2019-05-29T07:46:04.467Z,3016.00
2019-05-29T07:47:04.388Z,3612.00
2019-05-29T07:48:04.308Z,4068.00
2019-05-29T07:49:04.233Z,4224.00
2019-05-29T07:50:04.155Z,4512.00
2019-05-29T07:51:06.913Z,3908.00
2019-05-29T07:52:03.996Z,2820.00
2019-05-29T07:53:03.938Z,2784.00
2019-05-29T07:54:03.840Z,2676.00
2019-05-29T07:55:03.761Z,2596.00
2019-05-29T07:56:03.682Z,2800.00
2019-05-29T07:57:03.603Z,2680.00
2019-05-29T07:58:03.525Z,2552.00
2019-05-29T07:59:03.762Z,2116.00
2019-05-29T08:00:03.371Z,1840.00
2019-05-29T08:01:12.636Z,2144.00
2019-05-29T08:02:03.212Z,2412.00
2019-05-29T08:03:03.134Z,2456.00
2019-05-29T08:04:03.066Z,2736.00
2019-05-29T08:05:02.976Z,3600.00
2019-05-29T08:06:02.919Z,3264.00
2019-05-29T08:07:02.820Z,2784.00
2019-05-29T08:08:02.738Z,2944.00
2019-05-29T08:09:02.659Z,3112.00
2019-05-29T08:10:02.580Z,3728.00
2019-05-29T08:11:02.502Z,4692.00
2019-05-29T08:12:02.421Z,5120.00
2019-05-29T08:13:02.347Z,5112.00
2019-05-29T08:14:02.267Z,4484.00
2019-05-29T08:15:02.187Z,4808.00
2019-05-29T08:16:03.326Z,5256.00
2019-05-29T08:17:02.055Z,5548.00
